sensor_id;sensor_type;location;lat;lon;timestamp;temperature;humidity
21302;DHT22;10810;48.270;9.996;2022-07-23T00:01:46;25.80;71.40
21302;DHT22;10810;48.270;9.996;2022-07-23T00:08:17;25.80;73.40
21302;DHT22;10810;48.270;9.996;2022-07-23T00:10:55;25.70;73.90
21302;DHT22;10810;48.270;9.996;2022-07-23T00:13:47;25.60;73.70
21302;DHT22;10810;48.270;9.996;2022-07-23T00:16:31;25.60;74.70
21302;DHT22;10810;48.270;9.996;2022-07-23T00:19:03;25.60;75.20
21302;DHT22;10810;48.270;9.996;2022-07-23T00:21:45;25.60;74.90
21302;DHT22;10810;48.270;9.996;2022-07-23T00:24:50;25.60;76.30
21302;DHT22;10810;48.270;9.996;2022-07-23T00:27:29;25.60;77.80
21302;DHT22;10810;48.270;9.996;2022-07-23T00:30:14;25.60;77.10
21302;DHT22;10810;48.270;9.996;2022-07-23T00:33:22;25.60;75.50
21302;DHT22;10810;48.270;9.996;2022-07-23T00:36:06;25.60;77.90
21302;DHT22;10810;48.270;9.996;2022-07-23T00:38:39;25.60;78.50
21302;DHT22;10810;48.270;9.996;2022-07-23T00:41:41;25.60;79.30
21302;DHT22;10810;48.270;9.996;2022-07-23T00:44:36;25.50;78.50
21302;DHT22;10810;48.270;9.996;2022-07-23T00:47:37;25.50;79.00
21302;DHT22;10810;48.270;9.996;2022-07-23T00:56:55;25.50;78.80
21302;DHT22;10810;48.270;9.996;2022-07-23T00:59:48;25.40;79.20
21302;DHT22;10810;48.270;9.996;2022-07-23T01:02:35;25.40;80.80
21302;DHT22;10810;48.270;9.996;2022-07-23T01:05:27;25.40;79.50
21302;DHT22;10810;48.270;9.996;2022-07-23T01:12:23;25.00;81.10
21302;DHT22;10810;48.270;9.996;2022-07-23T01:14:34;24.40;79.50
21302;DHT22;10810;48.270;9.996;2022-07-23T01:17:26;25.40;80.10
21302;DHT22;10810;48.270;9.996;2022-07-23T01:20:16;25.40;80.90
21302;DHT22;10810;48.270;9.996;2022-07-23T01:23:10;25.30;80.70
21302;DHT22;10810;48.270;9.996;2022-07-23T01:28:49;25.20;83.00
21302;DHT22;10810;48.270;9.996;2022-07-23T01:31:34;24.50;80.60
21302;DHT22;10810;48.270;9.996;2022-07-23T01:34:27;25.10;84.00
21302;DHT22;10810;48.270;9.996;2022-07-23T01:37:42;25.00;82.20
21302;DHT22;10810;48.270;9.996;2022-07-23T01:43:11;25.00;82.10
21302;DHT22;10810;48.270;9.996;2022-07-23T01:45:47;25.00;82.90
21302;DHT22;10810;48.270;9.996;2022-07-23T01:50:07;25.00;83.60
21302;DHT22;10810;48.270;9.996;2022-07-23T01:51:31;24.90;84.00
21302;DHT22;10810;48.270;9.996;2022-07-23T01:55:10;24.90;83.00
21302;DHT22;10810;48.270;9.996;2022-07-23T01:57:57;24.90;84.40
21302;DHT22;10810;48.270;9.996;2022-07-23T02:03:42;24.80;82.20
21302;DHT22;10810;48.270;9.996;2022-07-23T02:06:19;24.20;83.70
21302;DHT22;10810;48.270;9.996;2022-07-23T02:08:53;24.80;84.20
21302;DHT22;10810;48.270;9.996;2022-07-23T02:11:43;24.90;84.00
21302;DHT22;10810;48.270;9.996;2022-07-23T02:14:51;24.80;84.20
21302;DHT22;10810;48.270;9.996;2022-07-23T02:17:33;24.80;84.00
21302;DHT22;10810;48.270;9.996;2022-07-23T02:20:32;24.80;84.30
21302;DHT22;10810;48.270;9.996;2022-07-23T02:26:25;24.80;84.40
21302;DHT22;10810;48.270;9.996;2022-07-23T02:29:07;24.80;84.50
21302;DHT22;10810;48.270;9.996;2022-07-23T02:31:57;24.70;84.30
21302;DHT22;10810;48.270;9.996;2022-07-23T02:34:47;24.70;85.00
21302;DHT22;10810;48.270;9.996;2022-07-23T02:40:52;24.70;82.60
21302;DHT22;10810;48.270;9.996;2022-07-23T02:43:25;24.60;82.60
21302;DHT22;10810;48.270;9.996;2022-07-23T02:48:54;24.60;84.70
21302;DHT22;10810;48.270;9.996;2022-07-23T02:52:06;24.60;85.50
21302;DHT22;10810;48.270;9.996;2022-07-23T02:54:48;24.60;85.20
21302;DHT22;10810;48.270;9.996;2022-07-23T02:57:21;24.50;84.80
21302;DHT22;10810;48.270;9.996;2022-07-23T03:00:20;24.50;84.90
21302;DHT22;10810;48.270;9.996;2022-07-23T03:02:56;24.50;85.00
21302;DHT22;10810;48.270;9.996;2022-07-23T03:05:43;24.50;85.40
21302;DHT22;10810;48.270;9.996;2022-07-23T03:08:26;24.50;85.10
21302;DHT22;10810;48.270;9.996;2022-07-23T03:11:11;24.40;85.40
21302;DHT22;10810;48.270;9.996;2022-07-23T03:14:00;24.40;85.80
21302;DHT22;10810;48.270;9.996;2022-07-23T03:20:11;24.30;85.50
21302;DHT22;10810;48.270;9.996;2022-07-23T03:23:07;24.20;86.30
21302;DHT22;10810;48.270;9.996;2022-07-23T03:26:05;24.20;85.60
21302;DHT22;10810;48.270;9.996;2022-07-23T03:28:49;24.30;85.70
21302;DHT22;10810;48.270;9.996;2022-07-23T03:31:31;24.20;86.00
21302;DHT22;10810;48.270;9.996;2022-07-23T03:34:01;24.20;86.80
21302;DHT22;10810;48.270;9.996;2022-07-23T03:36:59;24.10;85.20
21302;DHT22;10810;48.270;9.996;2022-07-23T03:39:58;23.50;86.80
21302;DHT22;10810;48.270;9.996;2022-07-23T03:42:33;24.10;85.10
21302;DHT22;10810;48.270;9.996;2022-07-23T03:45:44;24.10;86.40
21302;DHT22;10810;48.270;9.996;2022-07-23T03:48:41;24.10;86.30
21302;DHT22;10810;48.270;9.996;2022-07-23T03:51:41;24.00;86.40
21302;DHT22;10810;48.270;9.996;2022-07-23T03:54:32;24.10;86.60
21302;DHT22;10810;48.270;9.996;2022-07-23T04:00:13;24.00;86.80
21302;DHT22;10810;48.270;9.996;2022-07-23T04:02:43;24.00;87.20
21302;DHT22;10810;48.270;9.996;2022-07-23T04:05:15;23.20;86.10
21302;DHT22;10810;48.270;9.996;2022-07-23T04:07:56;23.90;86.30
21302;DHT22;10810;48.270;9.996;2022-07-23T04:10:38;23.90;86.10
21302;DHT22;10810;48.270;9.996;2022-07-23T04:13:17;23.90;86.80
21302;DHT22;10810;48.270;9.996;2022-07-23T04:15:55;23.90;86.10
21302;DHT22;10810;48.270;9.996;2022-07-23T04:25:03;23.90;85.40
21302;DHT22;10810;48.270;9.996;2022-07-23T04:27:51;23.80;87.30
21302;DHT22;10810;48.270;9.996;2022-07-23T04:33:31;23.80;87.20
21302;DHT22;10810;48.270;9.996;2022-07-23T04:36:09;23.80;86.20
21302;DHT22;10810;48.270;9.996;2022-07-23T04:38:50;23.80;86.30
21302;DHT22;10810;48.270;9.996;2022-07-23T04:51:17;23.60;88.10
21302;DHT22;10810;48.270;9.996;2022-07-23T04:53:51;23.70;88.70
21302;DHT22;10810;48.270;9.996;2022-07-23T04:56:43;23.60;88.20
21302;DHT22;10810;48.270;9.996;2022-07-23T04:59:11;23.70;88.30
21302;DHT22;10810;48.270;9.996;2022-07-23T05:01:41;23.60;87.20
21302;DHT22;10810;48.270;9.996;2022-07-23T05:04:31;23.60;88.50
21302;DHT22;10810;48.270;9.996;2022-07-23T05:07:07;23.60;86.40
21302;DHT22;10810;48.270;9.996;2022-07-23T05:09:38;23.60;87.90
21302;DHT22;10810;48.270;9.996;2022-07-23T05:12:07;23.50;88.00
21302;DHT22;10810;48.270;9.996;2022-07-23T05:14:57;23.60;87.00
21302;DHT22;10810;48.270;9.996;2022-07-23T05:17:50;23.70;89.40
21302;DHT22;10810;48.270;9.996;2022-07-23T05:21:00;23.60;89.90
21302;DHT22;10810;48.270;9.996;2022-07-23T05:23:58;23.50;90.00
21302;DHT22;10810;48.270;9.996;2022-07-23T05:27:38;23.50;89.70
21302;DHT22;10810;48.270;9.996;2022-07-23T05:30:10;23.60;90.10
21302;DHT22;10810;48.270;9.996;2022-07-23T05:33:03;23.60;90.00
21302;DHT22;10810;48.270;9.996;2022-07-23T05:35:42;22.80;89.90
21302;DHT22;10810;48.270;9.996;2022-07-23T05:39:15;23.40;89.50
21302;DHT22;10810;48.270;9.996;2022-07-23T05:41:43;23.50;90.10
21302;DHT22;10810;48.270;9.996;2022-07-23T05:44:18;23.40;90.20
21302;DHT22;10810;48.270;9.996;2022-07-23T05:47:30;23.40;90.30
21302;DHT22;10810;48.270;9.996;2022-07-23T05:51:31;23.40;90.60
21302;DHT22;10810;48.270;9.996;2022-07-23T05:53:29;23.50;90.70
21302;DHT22;10810;48.270;9.996;2022-07-23T05:55:59;23.40;89.50
21302;DHT22;10810;48.270;9.996;2022-07-23T05:58:30;23.30;90.50
21302;DHT22;10810;48.270;9.996;2022-07-23T06:00:59;23.30;90.50
21302;DHT22;10810;48.270;9.996;2022-07-23T06:03:28;23.30;91.00
21302;DHT22;10810;48.270;9.996;2022-07-23T06:06:24;23.40;90.80
21302;DHT22;10810;48.270;9.996;2022-07-23T06:08:56;23.20;90.80
21302;DHT22;10810;48.270;9.996;2022-07-23T06:11:25;23.20;90.80
21302;DHT22;10810;48.270;9.996;2022-07-23T06:13:52;23.20;89.70
21302;DHT22;10810;48.270;9.996;2022-07-23T06:16:41;23.20;90.60
21302;DHT22;10810;48.270;9.996;2022-07-23T06:19:29;23.20;90.80
21302;DHT22;10810;48.270;9.996;2022-07-23T06:22:11;23.00;91.30
21302;DHT22;10810;48.270;9.996;2022-07-23T06:24:48;23.20;90.20
21302;DHT22;10810;48.270;9.996;2022-07-23T06:27:17;23.20;90.50
21302;DHT22;10810;48.270;9.996;2022-07-23T06:29:46;23.20;89.90
21302;DHT22;10810;48.270;9.996;2022-07-23T06:32:15;23.20;90.20
21302;DHT22;10810;48.270;9.996;2022-07-23T06:35:16;23.20;89.90
21302;DHT22;10810;48.270;9.996;2022-07-23T06:38:02;23.20;90.40
21302;DHT22;10810;48.270;9.996;2022-07-23T06:40:41;23.30;90.70
21302;DHT22;10810;48.270;9.996;2022-07-23T06:43:09;23.20;90.90
21302;DHT22;10810;48.270;9.996;2022-07-23T06:45:57;23.20;90.70
21302;DHT22;10810;48.270;9.996;2022-07-23T06:48:40;23.60;91.20
21302;DHT22;10810;48.270;9.996;2022-07-23T06:51:16;23.20;91.00
21302;DHT22;10810;48.270;9.996;2022-07-23T06:57:32;23.20;90.90
21302;DHT22;10810;48.270;9.996;2022-07-23T07:00:57;23.10;90.00
21302;DHT22;10810;48.270;9.996;2022-07-23T07:03:41;23.10;90.90
21302;DHT22;10810;48.270;9.996;2022-07-23T07:06:49;23.10;90.90
21302;DHT22;10810;48.270;9.996;2022-07-23T07:09:35;23.20;91.30
21302;DHT22;10810;48.270;9.996;2022-07-23T07:15:33;23.10;90.40
21302;DHT22;10810;48.270;9.996;2022-07-23T07:18:31;23.20;90.70
21302;DHT22;10810;48.270;9.996;2022-07-23T07:21:23;23.20;91.70
21302;DHT22;10810;48.270;9.996;2022-07-23T07:23:53;23.20;91.10
21302;DHT22;10810;48.270;9.996;2022-07-23T07:26:20;23.10;91.90
21302;DHT22;10810;48.270;9.996;2022-07-23T07:30:22;23.10;91.50
21302;DHT22;10810;48.270;9.996;2022-07-23T07:31:49;22.00;91.30
21302;DHT22;10810;48.270;9.996;2022-07-23T07:34:19;23.10;91.90
21302;DHT22;10810;48.270;9.996;2022-07-23T07:37:01;23.10;91.90
21302;DHT22;10810;48.270;9.996;2022-07-23T07:39:34;23.20;91.90
21302;DHT22;10810;48.270;9.996;2022-07-23T07:43:28;23.20;92.20
21302;DHT22;10810;48.270;9.996;2022-07-23T07:46:29;23.40;92.00
21302;DHT22;10810;48.270;9.996;2022-07-23T07:55:42;23.50;91.10
21302;DHT22;10810;48.270;9.996;2022-07-23T07:59:06;23.50;91.20
21302;DHT22;10810;48.270;9.996;2022-07-23T08:01:27;23.50;92.10
21302;DHT22;10810;48.270;9.996;2022-07-23T08:04:05;23.60;92.20
21302;DHT22;10810;48.270;9.996;2022-07-23T08:06:51;23.70;92.30
21302;DHT22;10810;48.270;9.996;2022-07-23T08:09:33;23.60;91.90
21302;DHT22;10810;48.270;9.996;2022-07-23T08:18:37;23.80;91.10
21302;DHT22;10810;48.270;9.996;2022-07-23T08:21:15;23.80;91.10
21302;DHT22;10810;48.270;9.996;2022-07-23T08:23:42;23.90;91.80
21302;DHT22;10810;48.270;9.996;2022-07-23T08:26:41;23.90;91.00
21302;DHT22;10810;48.270;9.996;2022-07-23T08:29:24;23.90;91.40
21302;DHT22;10810;48.270;9.996;2022-07-23T08:33:59;23.90;90.70
21302;DHT22;10810;48.270;9.996;2022-07-23T08:51:17;24.10;90.90
21302;DHT22;10810;48.270;9.996;2022-07-23T08:53:56;24.10;91.60
21302;DHT22;10810;48.270;9.996;2022-07-23T08:57:38;24.10;91.90
21302;DHT22;10810;48.270;9.996;2022-07-23T08:59:37;24.10;92.10
21302;DHT22;10810;48.270;9.996;2022-07-23T09:02:19;24.20;91.70
21302;DHT22;10810;48.270;9.996;2022-07-23T09:04:49;24.20;91.20
21302;DHT22;10810;48.270;9.996;2022-07-23T09:20:53;24.20;90.80
21302;DHT22;10810;48.270;9.996;2022-07-23T09:24:19;24.20;91.40
21302;DHT22;10810;48.270;9.996;2022-07-23T09:33:29;24.20;91.40
21302;DHT22;10810;48.270;9.996;2022-07-23T09:36:29;24.20;91.40
21302;DHT22;10810;48.270;9.996;2022-07-23T09:39:40;24.30;90.60
21302;DHT22;10810;48.270;9.996;2022-07-23T09:42:56;24.20;91.70
21302;DHT22;10810;48.270;9.996;2022-07-23T09:49:10;24.20;91.30
21302;DHT22;10810;48.270;9.996;2022-07-23T09:52:26;24.30;91.50
21302;DHT22;10810;48.270;9.996;2022-07-23T09:58:50;24.40;92.50
21302;DHT22;10810;48.270;9.996;2022-07-23T10:04:46;24.40;92.60
21302;DHT22;10810;48.270;9.996;2022-07-23T10:07:27;24.40;91.40
21302;DHT22;10810;48.270;9.996;2022-07-23T10:10:31;24.50;92.30
21302;DHT22;10810;48.270;9.996;2022-07-23T10:13:04;24.50;91.60
21302;DHT22;10810;48.270;9.996;2022-07-23T10:15:54;24.50;92.00
21302;DHT22;10810;48.270;9.996;2022-07-23T10:31:05;24.60;91.20
21302;DHT22;10810;48.270;9.996;2022-07-23T10:34:24;24.70;90.90
21302;DHT22;10810;48.270;9.996;2022-07-23T10:36:51;24.70;91.70
21302;DHT22;10810;48.270;9.996;2022-07-23T10:39:26;24.70;91.10
21302;DHT22;10810;48.270;9.996;2022-07-23T10:45:30;24.80;91.80
21302;DHT22;10810;48.270;9.996;2022-07-23T10:49:15;24.80;90.90
21302;DHT22;10810;48.270;9.996;2022-07-23T11:01:33;24.90;90.80
21302;DHT22;10810;48.270;9.996;2022-07-23T11:04:12;24.90;90.50
21302;DHT22;10810;48.270;9.996;2022-07-23T11:07:21;25.00;91.40
21302;DHT22;10810;48.270;9.996;2022-07-23T11:10:12;24.90;91.30
21302;DHT22;10810;48.270;9.996;2022-07-23T11:12:53;24.90;91.30
21302;DHT22;10810;48.270;9.996;2022-07-23T11:24:54;25.00;90.70
21302;DHT22;10810;48.270;9.996;2022-07-23T11:27:38;25.00;90.70
21302;DHT22;10810;48.270;9.996;2022-07-23T11:30:07;25.10;90.80
21302;DHT22;10810;48.270;9.996;2022-07-23T11:32:40;25.10;90.70
21302;DHT22;10810;48.270;9.996;2022-07-23T11:36:02;25.00;91.40
21302;DHT22;10810;48.270;9.996;2022-07-23T11:38:44;25.10;90.80
21302;DHT22;10810;48.270;9.996;2022-07-23T11:41:57;25.10;91.40
21302;DHT22;10810;48.270;9.996;2022-07-23T11:46:21;25.20;90.60
21302;DHT22;10810;48.270;9.996;2022-07-23T11:47:28;25.20;91.40
21302;DHT22;10810;48.270;9.996;2022-07-23T11:50:37;25.20;90.70
21302;DHT22;10810;48.270;9.996;2022-07-23T11:53:25;25.20;91.40
21302;DHT22;10810;48.270;9.996;2022-07-23T11:55:53;25.20;91.30
21302;DHT22;10810;48.270;9.996;2022-07-23T11:58:36;25.20;90.80
21302;DHT22;10810;48.270;9.996;2022-07-23T12:01:40;25.30;91.20
21302;DHT22;10810;48.270;9.996;2022-07-23T12:04:43;25.20;91.50
21302;DHT22;10810;48.270;9.996;2022-07-23T12:07:35;25.30;91.70
21302;DHT22;10810;48.270;9.996;2022-07-23T12:10:09;25.30;91.30
21302;DHT22;10810;48.270;9.996;2022-07-23T12:12:47;25.30;91.00
21302;DHT22;10810;48.270;9.996;2022-07-23T12:15:47;25.30;91.70
21302;DHT22;10810;48.270;9.996;2022-07-23T12:18:22;25.30;90.90
21302;DHT22;10810;48.270;9.996;2022-07-23T12:20:55;25.30;91.20
21302;DHT22;10810;48.270;9.996;2022-07-23T12:23:30;25.40;91.90
21302;DHT22;10810;48.270;9.996;2022-07-23T12:27:27;25.30;91.60
21302;DHT22;10810;48.270;9.996;2022-07-23T12:33:21;25.40;91.20
21302;DHT22;10810;48.270;9.996;2022-07-23T12:36:09;25.40;91.60
21302;DHT22;10810;48.270;9.996;2022-07-23T12:38:53;25.50;91.60
21302;DHT22;10810;48.270;9.996;2022-07-23T12:43:35;25.50;91.70
21302;DHT22;10810;48.270;9.996;2022-07-23T12:45:24;25.50;90.80
21302;DHT22;10810;48.270;9.996;2022-07-23T12:51:29;25.60;90.90
21302;DHT22;10810;48.270;9.996;2022-07-23T12:54:03;25.60;91.00
21302;DHT22;10810;48.270;9.996;2022-07-23T13:00:02;25.60;91.30
21302;DHT22;10810;48.270;9.996;2022-07-23T13:02:52;25.60;91.30
21302;DHT22;10810;48.270;9.996;2022-07-23T13:05:41;25.70;91.30
21302;DHT22;10810;48.270;9.996;2022-07-23T13:12:05;25.80;90.80
21302;DHT22;10810;48.270;9.996;2022-07-23T13:15:20;25.80;90.70
21302;DHT22;10810;48.270;9.996;2022-07-23T13:17:39;25.80;91.30
21302;DHT22;10810;48.270;9.996;2022-07-23T13:20:24;25.90;91.50
21302;DHT22;10810;48.270;9.996;2022-07-23T13:23:36;25.80;91.10
21302;DHT22;10810;48.270;9.996;2022-07-23T13:29:58;25.90;90.70
21302;DHT22;10810;48.270;9.996;2022-07-23T13:33:12;25.90;90.50
21302;DHT22;10810;48.270;9.996;2022-07-23T13:36:07;25.60;91.20
21302;DHT22;10810;48.270;9.996;2022-07-23T13:39:51;26.00;91.00
21302;DHT22;10810;48.270;9.996;2022-07-23T13:44:05;26.00;90.80
21302;DHT22;10810;48.270;9.996;2022-07-23T13:54:58;26.10;89.80
21302;DHT22;10810;48.270;9.996;2022-07-23T13:57:58;26.10;90.00
21302;DHT22;10810;48.270;9.996;2022-07-23T14:03:46;26.20;88.90
21302;DHT22;10810;48.270;9.996;2022-07-23T14:06:20;26.20;89.60
21302;DHT22;10810;48.270;9.996;2022-07-23T14:09:35;26.20;89.40
21302;DHT22;10810;48.270;9.996;2022-07-23T14:12:05;26.20;89.40
21302;DHT22;10810;48.270;9.996;2022-07-23T14:14:35;26.20;90.00
21302;DHT22;10810;48.270;9.996;2022-07-23T14:17:12;26.20;89.00
21302;DHT22;10810;48.270;9.996;2022-07-23T14:19:47;26.20;90.20
21302;DHT22;10810;48.270;9.996;2022-07-23T14:22:35;26.20;89.80
21302;DHT22;10810;48.270;9.996;2022-07-23T14:25:47;26.10;91.40
21302;DHT22;10810;48.270;9.996;2022-07-23T14:28:54;26.10;91.80
21302;DHT22;10810;48.270;9.996;2022-07-23T14:31:36;26.10;91.60
21302;DHT22;10810;48.270;9.996;2022-07-23T14:34:25;26.10;92.60
21302;DHT22;10810;48.270;9.996;2022-07-23T14:37:19;26.10;93.00
21302;DHT22;10810;48.270;9.996;2022-07-23T14:39:59;25.70;92.90
21302;DHT22;10810;48.270;9.996;2022-07-23T14:42:33;26.00;93.70
21302;DHT22;10810;48.270;9.996;2022-07-23T14:48:30;25.90;93.90
21302;DHT22;10810;48.270;9.996;2022-07-23T14:51:15;25.90;94.40
21302;DHT22;10810;48.270;9.996;2022-07-23T14:56:32;25.90;94.60
21302;DHT22;10810;48.270;9.996;2022-07-23T14:59:04;25.90;94.10
21302;DHT22;10810;48.270;9.996;2022-07-23T15:01:41;25.80;94.00
21302;DHT22;10810;48.270;9.996;2022-07-23T15:04:59;25.80;94.00
21302;DHT22;10810;48.270;9.996;2022-07-23T15:07:39;25.80;92.90
21302;DHT22;10810;48.270;9.996;2022-07-23T15:10:46;25.80;93.30
21302;DHT22;10810;48.270;9.996;2022-07-23T15:13:35;25.80;93.70
21302;DHT22;10810;48.270;9.996;2022-07-23T15:16:41;25.80;93.60
21302;DHT22;10810;48.270;9.996;2022-07-23T15:22:30;25.80;92.80
21302;DHT22;10810;48.270;9.996;2022-07-23T15:25:02;25.80;93.20
21302;DHT22;10810;48.270;9.996;2022-07-23T15:27:54;25.70;93.40
21302;DHT22;10810;48.270;9.996;2022-07-23T15:30:29;25.30;92.70
21302;DHT22;10810;48.270;9.996;2022-07-23T15:33:00;25.70;93.00
21302;DHT22;10810;48.270;9.996;2022-07-23T15:35:45;25.70;93.10
21302;DHT22;10810;48.270;9.996;2022-07-23T15:38:28;25.70;93.60
21302;DHT22;10810;48.270;9.996;2022-07-23T15:41:14;25.70;93.30
21302;DHT22;10810;48.270;9.996;2022-07-23T15:47:22;25.70;93.00
21302;DHT22;10810;48.270;9.996;2022-07-23T15:49:49;25.70;92.00
21302;DHT22;10810;48.270;9.996;2022-07-23T15:52:35;25.70;91.70
21302;DHT22;10810;48.270;9.996;2022-07-23T15:55:23;25.60;92.20
21302;DHT22;10810;48.270;9.996;2022-07-23T15:58:40;25.70;91.60
21302;DHT22;10810;48.270;9.996;2022-07-23T16:01:43;25.60;91.60
21302;DHT22;10810;48.270;9.996;2022-07-23T16:04:29;25.60;92.30
21302;DHT22;10810;48.270;9.996;2022-07-23T16:07:27;25.60;92.30
21302;DHT22;10810;48.270;9.996;2022-07-23T16:10:08;25.60;92.30
21302;DHT22;10810;48.270;9.996;2022-07-23T16:13:03;25.60;92.30
21302;DHT22;10810;48.270;9.996;2022-07-23T16:15:50;25.00;92.30
21302;DHT22;10810;48.270;9.996;2022-07-23T16:18:34;25.60;92.60
21302;DHT22;10810;48.270;9.996;2022-07-23T16:21:52;25.60;92.70
21302;DHT22;10810;48.270;9.996;2022-07-23T16:24:56;25.60;92.70
21302;DHT22;10810;48.270;9.996;2022-07-23T16:27:39;25.70;92.60
21302;DHT22;10810;48.270;9.996;2022-07-23T16:30:19;25.70;92.20
21302;DHT22;10810;48.270;9.996;2022-07-23T16:33:15;25.60;92.70
21302;DHT22;10810;48.270;9.996;2022-07-23T16:35:58;25.70;92.80
21302;DHT22;10810;48.270;9.996;2022-07-23T16:38:46;25.70;92.70
21302;DHT22;10810;48.270;9.996;2022-07-23T16:41:54;25.60;92.80
21302;DHT22;10810;48.270;9.996;2022-07-23T16:45:37;25.70;92.80
21302;DHT22;10810;48.270;9.996;2022-07-23T16:47:44;25.70;92.80
21302;DHT22;10810;48.270;9.996;2022-07-23T16:50:34;25.70;92.50
21302;DHT22;10810;48.270;9.996;2022-07-23T16:53:25;25.70;92.80
21302;DHT22;10810;48.270;9.996;2022-07-23T16:56:22;25.30;92.40
21302;DHT22;10810;48.270;9.996;2022-07-23T17:05:57;25.80;92.20
21302;DHT22;10810;48.270;9.996;2022-07-23T17:08:50;25.80;93.00
21302;DHT22;10810;48.270;9.996;2022-07-23T17:11:43;25.80;92.90
21302;DHT22;10810;48.270;9.996;2022-07-23T17:15:04;25.70;92.80
21302;DHT22;10810;48.270;9.996;2022-07-23T17:20:42;25.80;92.80
21302;DHT22;10810;48.270;9.996;2022-07-23T17:26:30;25.70;92.10
21302;DHT22;10810;48.270;9.996;2022-07-23T17:29:21;25.90;92.60
21302;DHT22;10810;48.270;9.996;2022-07-23T17:31:59;25.80;93.30
21302;DHT22;10810;48.270;9.996;2022-07-23T17:34:46;25.80;93.40
21302;DHT22;10810;48.270;9.996;2022-07-23T17:37:23;25.80;93.50
21302;DHT22;10810;48.270;9.996;2022-07-23T17:40:19;25.80;93.00
21302;DHT22;10810;48.270;9.996;2022-07-23T17:43:32;25.80;93.90
21302;DHT22;10810;48.270;9.996;2022-07-23T17:46:01;25.80;93.10
21302;DHT22;10810;48.270;9.996;2022-07-23T17:48:28;25.80;93.20
21302;DHT22;10810;48.270;9.996;2022-07-23T17:51:03;25.80;94.30
21302;DHT22;10810;48.270;9.996;2022-07-23T17:53:35;25.70;94.10
21302;DHT22;10810;48.270;9.996;2022-07-23T17:56:38;25.70;94.10
21302;DHT22;10810;48.270;9.996;2022-07-23T18:02:45;25.80;93.00
21302;DHT22;10810;48.270;9.996;2022-07-23T18:05:39;25.60;93.20
21302;DHT22;10810;48.270;9.996;2022-07-23T18:08:22;25.60;94.10
21302;DHT22;10810;48.270;9.996;2022-07-23T18:11:22;25.60;93.70
21302;DHT22;10810;48.270;9.996;2022-07-23T18:13:58;25.60;93.60
21302;DHT22;10810;48.270;9.996;2022-07-23T18:16:45;25.50;92.60
21302;DHT22;10810;48.270;9.996;2022-07-23T18:28:53;25.40;92.10
21302;DHT22;10810;48.270;9.996;2022-07-23T18:31:48;25.40;93.00
21302;DHT22;10810;48.270;9.996;2022-07-23T18:34:45;25.30;92.90
21302;DHT22;10810;48.270;9.996;2022-07-23T18:37:40;25.30;93.10
21302;DHT22;10810;48.270;9.996;2022-07-23T18:40:13;25.30;92.60
21302;DHT22;10810;48.270;9.996;2022-07-23T18:44:36;25.30;92.70
21302;DHT22;10810;48.270;9.996;2022-07-23T18:46:05;25.30;92.80
21302;DHT22;10810;48.270;9.996;2022-07-23T18:48:36;25.30;93.20
21302;DHT22;10810;48.270;9.996;2022-07-23T18:51:09;25.30;92.30
21302;DHT22;10810;48.270;9.996;2022-07-23T18:53:56;25.20;92.80
21302;DHT22;10810;48.270;9.996;2022-07-23T18:57:06;25.20;92.80
21302;DHT22;10810;48.270;9.996;2022-07-23T18:59:37;25.20;92.70
21302;DHT22;10810;48.270;9.996;2022-07-23T19:02:45;25.20;92.30
21302;DHT22;10810;48.270;9.996;2022-07-23T19:05:14;25.20;92.80
21302;DHT22;10810;48.270;9.996;2022-07-23T19:08:11;25.20;92.70
21302;DHT22;10810;48.270;9.996;2022-07-23T19:10:59;25.20;92.50
21302;DHT22;10810;48.270;9.996;2022-07-23T19:14:04;25.20;91.60
21302;DHT22;10810;48.270;9.996;2022-07-23T19:16:30;25.20;92.50
21302;DHT22;10810;48.270;9.996;2022-07-23T19:38:13;25.00;91.30
21302;DHT22;10810;48.270;9.996;2022-07-23T19:41:03;25.00;91.30
21302;DHT22;10810;48.270;9.996;2022-07-23T19:47:17;24.90;92.00
21302;DHT22;10810;48.270;9.996;2022-07-23T19:49:54;24.80;91.60
21302;DHT22;10810;48.270;9.996;2022-07-23T20:12:10;24.70;90.60
21302;DHT22;10810;48.270;9.996;2022-07-23T20:20:42;24.60;91.60
21302;DHT22;10810;48.270;9.996;2022-07-23T20:23:56;24.60;91.00
21302;DHT22;10810;48.270;9.996;2022-07-23T20:26:37;24.50;91.90
21302;DHT22;10810;48.270;9.996;2022-07-23T20:35:56;24.50;91.80
21302;DHT22;10810;48.270;9.996;2022-07-23T20:38:29;24.50;91.60
21302;DHT22;10810;48.270;9.996;2022-07-23T20:41:35;24.40;91.90
21302;DHT22;10810;48.270;9.996;2022-07-23T20:44:39;24.40;91.80
21302;DHT22;10810;48.270;9.996;2022-07-23T20:47:44;24.40;91.00
21302;DHT22;10810;48.270;9.996;2022-07-23T20:50:26;24.30;91.90
21302;DHT22;10810;48.270;9.996;2022-07-23T20:53:03;24.30;92.10
21302;DHT22;10810;48.270;9.996;2022-07-23T20:55:53;24.30;91.80
21302;DHT22;10810;48.270;9.996;2022-07-23T20:59:19;24.30;91.50
21302;DHT22;10810;48.270;9.996;2022-07-23T21:01:42;24.30;91.80
21302;DHT22;10810;48.270;9.996;2022-07-23T21:04:47;24.20;91.90
21302;DHT22;10810;48.270;9.996;2022-07-23T21:07:35;24.40;92.10
21302;DHT22;10810;48.270;9.996;2022-07-23T21:10:21;24.20;92.30
21302;DHT22;10810;48.270;9.996;2022-07-23T21:12:54;24.20;91.90
21302;DHT22;10810;48.270;9.996;2022-07-23T21:15:48;24.20;92.00
21302;DHT22;10810;48.270;9.996;2022-07-23T21:25:08;23.10;90.70
21302;DHT22;10810;48.270;9.996;2022-07-23T21:28:00;23.50;90.80
21302;DHT22;10810;48.270;9.996;2022-07-23T21:33:39;24.10;91.60
21302;DHT22;10810;48.270;9.996;2022-07-23T21:37:06;24.10;91.40
21302;DHT22;10810;48.270;9.996;2022-07-23T21:39:24;24.10;92.00
21302;DHT22;10810;48.270;9.996;2022-07-23T21:42:38;24.00;92.00
21302;DHT22;10810;48.270;9.996;2022-07-23T21:46:24;24.00;91.00
21302;DHT22;10810;48.270;9.996;2022-07-23T21:49:59;24.00;91.90
21302;DHT22;10810;48.270;9.996;2022-07-23T21:56:13;24.00;92.00
21302;DHT22;10810;48.270;9.996;2022-07-23T22:02:10;23.90;91.10
21302;DHT22;10810;48.270;9.996;2022-07-23T22:04:43;23.90;91.10
21302;DHT22;10810;48.270;9.996;2022-07-23T22:07:38;23.80;92.10
21302;DHT22;10810;48.270;9.996;2022-07-23T22:10:19;23.80;91.90
21302;DHT22;10810;48.270;9.996;2022-07-23T22:13:13;23.80;91.80
21302;DHT22;10810;48.270;9.996;2022-07-23T22:16:09;22.60;91.60
21302;DHT22;10810;48.270;9.996;2022-07-23T22:22:17;23.80;92.10
21302;DHT22;10810;48.270;9.996;2022-07-23T22:25:02;23.80;92.10
21302;DHT22;10810;48.270;9.996;2022-07-23T22:27:39;23.70;91.90
21302;DHT22;10810;48.270;9.996;2022-07-23T22:30:36;23.70;92.10
21302;DHT22;10810;48.270;9.996;2022-07-23T22:33:18;23.70;91.90
21302;DHT22;10810;48.270;9.996;2022-07-23T22:36:20;23.70;92.00
21302;DHT22;10810;48.270;9.996;2022-07-23T22:39:05;23.60;90.90
21302;DHT22;10810;48.270;9.996;2022-07-23T22:42:05;23.60;91.50
21302;DHT22;10810;48.270;9.996;2022-07-23T22:45:23;23.60;91.60